Aviation Digital Data Service (ADDS)

Output produced by METARs form (1822 UTC 28 July 2016)
found at http://aviationweather.gov/adds/metars/
 
KLBT 281734Z 2818/2918 27010G17KT P6SM FEW050 
     FM290100 22004KT P6SM SKC 
     FM291000 23003KT 5SM BR SKC 
     FM291300 26010KT P6SM SKC 
     FM291600 28011G18KT P6SM SKC